sensor_id;sensor_type;location;lat;lon;timestamp;pressure;altitude;pressure_sealevel;temperature;humidity
61674;BME280;47573;43.832;5.974;2023-02-18T00:03:33;96455.59;;;22.33;73.89
61674;BME280;47573;43.832;5.974;2023-02-18T00:10:14;96463.97;;;22.25;73.70
61674;BME280;47573;43.832;5.974;2023-02-18T00:16:55;96468.19;;;22.14;73.64
61674;BME280;47573;43.832;5.974;2023-02-18T00:23:37;96465.84;;;22.05;73.51
61674;BME280;47573;43.832;5.974;2023-02-18T00:30:17;96457.06;;;21.96;73.22
61674;BME280;47573;43.832;5.974;2023-02-18T00:36:58;96454.34;;;21.96;73.14
61674;BME280;47573;43.832;5.974;2023-02-18T00:43:40;96451.66;;;21.83;73.10
61674;BME280;47573;43.832;5.974;2023-02-18T00:50:20;96459.16;;;21.81;72.97
61674;BME280;47573;43.832;5.974;2023-02-18T00:57:01;96457.66;;;21.72;72.80
61674;BME280;47573;43.832;5.974;2023-02-18T01:03:43;96454.94;;;21.72;72.41
61674;BME280;47573;43.832;5.974;2023-02-18T01:10:24;96455.16;;;21.64;72.47
61674;BME280;47573;43.832;5.974;2023-02-18T01:17:04;96445.94;;;21.65;71.72
61674;BME280;47573;43.832;5.974;2023-02-18T01:23:47;96447.19;;;21.56;71.40
61674;BME280;47573;43.832;5.974;2023-02-18T01:30:27;96448.03;;;21.50;71.10
61674;BME280;47573;43.832;5.974;2023-02-18T01:37:08;96432.13;;;21.47;71.18
61674;BME280;47573;43.832;5.974;2023-02-18T01:44:11;96432.13;;;21.47;70.71
61674;BME280;47573;43.832;5.974;2023-02-18T01:50:55;96417.88;;;21.38;70.65
61674;BME280;47573;43.832;5.974;2023-02-18T01:57:36;96409.31;;;21.35;70.72
61674;BME280;47573;43.832;5.974;2023-02-18T02:04:19;96407.22;;;21.30;70.60
61674;BME280;47573;43.832;5.974;2023-02-18T02:11:16;96399.91;;;21.24;70.51
61674;BME280;47573;43.832;5.974;2023-02-18T02:18:26;96398.22;;;21.17;70.38
61674;BME280;47573;43.832;5.974;2023-02-18T02:25:19;96397.59;;;21.15;70.44
61674;BME280;47573;43.832;5.974;2023-02-18T02:32:31;96382.94;;;21.09;70.40
61674;BME280;47573;43.832;5.974;2023-02-18T02:39:25;96386.25;;;21.05;70.55
61674;BME280;47573;43.832;5.974;2023-02-18T02:46:12;96379.53;;;21.01;70.16
61674;BME280;47573;43.832;5.974;2023-02-18T02:52:58;96379.34;;;20.96;70.03
61674;BME280;47573;43.832;5.974;2023-02-18T02:59:47;96368.88;;;20.93;70.23
61674;BME280;47573;43.832;5.974;2023-02-18T03:06:53;96368.66;;;20.88;70.32
61674;BME280;47573;43.832;5.974;2023-02-18T03:13:56;96363.84;;;20.83;70.23
61674;BME280;47573;43.832;5.974;2023-02-18T03:20:47;96348.78;;;20.80;69.95
61674;BME280;47573;43.832;5.974;2023-02-18T03:27:33;96357.38;;;20.77;69.96
61674;BME280;47573;43.832;5.974;2023-02-18T03:34:21;96353.78;;;20.70;70.11
61674;BME280;47573;43.832;5.974;2023-02-18T03:41:04;96352.09;;;20.69;70.00
61674;BME280;47573;43.832;5.974;2023-02-18T03:47:45;96354.59;;;20.64;69.88
61674;BME280;47573;43.832;5.974;2023-02-18T03:54:26;96355.41;;;20.58;69.65
61674;BME280;47573;43.832;5.974;2023-02-18T04:01:08;96355.41;;;20.58;69.55
61674;BME280;47573;43.832;5.974;2023-02-18T04:07:48;96347.84;;;20.47;69.82
61674;BME280;47573;43.832;5.974;2023-02-18T04:14:29;96355.78;;;20.49;69.43
61674;BME280;47573;43.832;5.974;2023-02-18T04:21:11;96358.91;;;20.46;69.46
61674;BME280;47573;43.832;5.974;2023-02-18T04:27:51;96350.31;;;20.42;69.30
61674;BME280;47573;43.832;5.974;2023-02-18T04:34:32;96346.56;;;20.43;69.09
61674;BME280;47573;43.832;5.974;2023-02-18T04:41:14;96352.41;;;20.40;69.01
61674;BME280;47573;43.832;5.974;2023-02-18T04:47:54;96347.78;;;20.34;69.27
61674;BME280;47573;43.832;5.974;2023-02-18T04:54:35;96348.19;;;20.31;68.97
61674;BME280;47573;43.832;5.974;2023-02-18T05:01:16;96334.00;;;20.29;68.97
61674;BME280;47573;43.832;5.974;2023-02-18T05:07:57;96341.50;;;20.27;68.70
61674;BME280;47573;43.832;5.974;2023-02-18T05:14:37;96341.25;;;20.22;68.66
61674;BME280;47573;43.832;5.974;2023-02-18T05:21:19;96338.94;;;20.19;68.68
61674;BME280;47573;43.832;5.974;2023-02-18T05:28:00;96346.44;;;20.17;68.42
61674;BME280;47573;43.832;5.974;2023-02-18T05:34:40;96332.63;;;20.12;68.66
61674;BME280;47573;43.832;5.974;2023-02-18T05:41:22;96327.59;;;20.09;68.49
61674;BME280;47573;43.832;5.974;2023-02-18T05:48:03;96331.75;;;20.05;68.78
61674;BME280;47573;43.832;5.974;2023-02-18T05:54:44;96332.16;;;20.02;68.70
61674;BME280;47573;43.832;5.974;2023-02-18T06:01:25;96332.53;;;19.99;68.39
61674;BME280;47573;43.832;5.974;2023-02-18T06:08:06;96342.13;;;19.95;68.51
61674;BME280;47573;43.832;5.974;2023-02-18T06:14:46;96334.56;;;19.90;68.61
61674;BME280;47573;43.832;5.974;2023-02-18T06:21:28;96335.84;;;19.88;68.66
61674;BME280;47573;43.832;5.974;2023-02-18T06:28:09;96331.22;;;19.82;68.56
61674;BME280;47573;43.832;5.974;2023-02-18T06:34:49;96341.63;;;19.85;68.23
61674;BME280;47573;43.832;5.974;2023-02-18T06:41:31;96348.66;;;20.07;69.28
61674;BME280;47573;43.832;5.974;2023-02-18T06:48:12;96344.44;;;20.32;69.25
61674;BME280;47573;43.832;5.974;2023-02-18T06:54:53;96348.03;;;20.39;69.40
61674;BME280;47573;43.832;5.974;2023-02-18T07:01:34;96349.53;;;20.48;69.97
61674;BME280;47573;43.832;5.974;2023-02-18T07:08:16;96360.41;;;20.61;69.84
61674;BME280;47573;43.832;5.974;2023-02-18T07:14:56;96370.94;;;20.77;69.89
61674;BME280;47573;43.832;5.974;2023-02-18T07:21:38;96375.75;;;20.89;69.78
61674;BME280;47573;43.832;5.974;2023-02-18T07:28:19;96378.50;;;21.02;69.80
61674;BME280;47573;43.832;5.974;2023-02-18T07:34:59;96378.56;;;21.08;69.96
61674;BME280;47573;43.832;5.974;2023-02-18T07:41:41;96382.13;;;21.15;70.10
61674;BME280;47573;43.832;5.974;2023-02-18T07:48:21;96391.19;;;20.88;69.68
61674;BME280;47573;43.832;5.974;2023-02-18T07:55:02;96383.25;;;20.80;68.87
61674;BME280;47573;43.832;5.974;2023-02-18T08:01:44;96373.84;;;20.82;69.28
61674;BME280;47573;43.832;5.974;2023-02-18T08:08:26;96381.19;;;20.89;68.37
61674;BME280;47573;43.832;5.974;2023-02-18T08:15:08;96385.16;;;20.93;67.43
61674;BME280;47573;43.832;5.974;2023-02-18T08:21:50;96378.50;;;20.95;67.59
61674;BME280;47573;43.832;5.974;2023-02-18T08:28:30;96371.81;;;20.98;64.72
61674;BME280;47573;43.832;5.974;2023-02-18T08:35:12;96385.38;;;20.37;57.40
61674;BME280;47573;43.832;5.974;2023-02-18T08:41:55;96390.38;;;20.40;56.95
61674;BME280;47573;43.832;5.974;2023-02-18T08:48:36;96400.44;;;20.46;55.82
61674;BME280;47573;43.832;5.974;2023-02-18T08:55:17;96389.19;;;20.49;57.04
61674;BME280;47573;43.832;5.974;2023-02-18T09:01:58;96388.88;;;20.78;61.13
61674;BME280;47573;43.832;5.974;2023-02-18T09:08:39;96391.66;;;20.92;62.37
61674;BME280;47573;43.832;5.974;2023-02-18T09:15:19;96384.97;;;20.94;62.39
61674;BME280;47573;43.832;5.974;2023-02-18T09:22:01;96384.75;;;20.96;62.69
61674;BME280;47573;43.832;5.974;2023-02-18T09:28:42;96384.59;;;21.04;62.80
61674;BME280;47573;43.832;5.974;2023-02-18T09:35:23;96378.50;;;21.02;63.04
61674;BME280;47573;43.832;5.974;2023-02-18T09:42:07;96376.06;;;21.20;62.30
61674;BME280;47573;43.832;5.974;2023-02-18T09:48:51;96386.53;;;21.23;56.60
61674;BME280;47573;43.832;5.974;2023-02-18T09:55:32;96374.38;;;21.06;55.13
61674;BME280;47573;43.832;5.974;2023-02-18T10:02:15;96369.97;;;21.05;52.51
61674;BME280;47573;43.832;5.974;2023-02-18T10:08:58;96365.19;;;21.20;52.42
61674;BME280;47573;43.832;5.974;2023-02-18T10:15:42;96369.56;;;21.08;53.09
61674;BME280;47573;43.832;5.974;2023-02-18T10:22:25;96359.56;;;21.08;51.36
61674;BME280;47573;43.832;5.974;2023-02-18T10:29:13;96353.91;;;21.10;51.05
61674;BME280;47573;43.832;5.974;2023-02-18T10:35:58;96364.81;;;21.23;53.21
61674;BME280;47573;43.832;5.974;2023-02-18T10:42:53;96359.38;;;21.55;55.55
61674;BME280;47573;43.832;5.974;2023-02-18T10:49:50;96355.22;;;21.59;56.50
61674;BME280;47573;43.832;5.974;2023-02-18T10:56:38;96346.44;;;21.64;56.61
61674;BME280;47573;43.832;5.974;2023-02-18T11:03:22;96351.44;;;21.67;57.34
61674;BME280;47573;43.832;5.974;2023-02-18T11:10:14;96336.19;;;21.66;57.25
61674;BME280;47573;43.832;5.974;2023-02-18T11:17:08;96332.41;;;21.67;56.70
61674;BME280;47573;43.832;5.974;2023-02-18T11:23:52;96331.38;;;21.68;56.44
61674;BME280;47573;43.832;5.974;2023-02-18T11:30:35;96321.56;;;21.60;55.30
61674;BME280;47573;43.832;5.974;2023-02-18T11:37:18;96319.66;;;21.74;56.27
61674;BME280;47573;43.832;5.974;2023-02-18T11:44:02;96298.97;;;21.67;55.71
61674;BME280;47573;43.832;5.974;2023-02-18T11:50:44;96292.25;;;21.69;54.96
61674;BME280;47573;43.832;5.974;2023-02-18T11:57:26;96284.09;;;21.69;55.52
61674;BME280;47573;43.832;5.974;2023-02-18T12:04:11;96278.03;;;21.80;56.10
61674;BME280;47573;43.832;5.974;2023-02-18T12:10:55;96265.28;;;21.74;56.20
61674;BME280;47573;43.832;5.974;2023-02-18T12:17:51;96269.88;;;21.67;55.69
61674;BME280;47573;43.832;5.974;2023-02-18T12:24:49;96259.44;;;21.71;55.62
61674;BME280;47573;43.832;5.974;2023-02-18T12:31:46;96251.25;;;21.84;55.89
61674;BME280;47573;43.832;5.974;2023-02-18T12:38:57;96237.25;;;21.93;56.22
61674;BME280;47573;43.832;5.974;2023-02-18T12:46:11;96228.84;;;21.95;56.17
61674;BME280;47573;43.832;5.974;2023-02-18T12:53:06;96213.38;;;21.95;56.53
61674;BME280;47573;43.832;5.974;2023-02-18T13:00:22;96212.53;;;22.01;57.04
61674;BME280;47573;43.832;5.974;2023-02-18T13:07:32;96202.69;;;22.00;57.36
61674;BME280;47573;43.832;5.974;2023-02-18T13:14:19;96188.66;;;22.03;57.42
61674;BME280;47573;43.832;5.974;2023-02-18T13:21:04;96185.75;;;21.98;57.49
61674;BME280;47573;43.832;5.974;2023-02-18T13:27:52;96177.59;;;21.98;58.15
61674;BME280;47573;43.832;5.974;2023-02-18T13:34:42;96168.16;;;22.07;57.71
61674;BME280;47573;43.832;5.974;2023-02-18T13:41:26;96156.44;;;22.00;58.40
61674;BME280;47573;43.832;5.974;2023-02-18T13:48:21;96150.59;;;22.03;58.43
61674;BME280;47573;43.832;5.974;2023-02-18T13:55:02;96152.69;;;22.01;58.86
61674;BME280;47573;43.832;5.974;2023-02-18T14:01:45;96142.25;;;21.98;58.79
61674;BME280;47573;43.832;5.974;2023-02-18T14:08:33;96145.16;;;22.03;59.17
61674;BME280;47573;43.832;5.974;2023-02-18T14:15:49;96137.63;;;21.99;59.03
61674;BME280;47573;43.832;5.974;2023-02-18T14:22:32;96133.03;;;21.99;59.39
61674;BME280;47573;43.832;5.974;2023-02-18T14:29:19;96134.69;;;22.00;59.53
61674;BME280;47573;43.832;5.974;2023-02-18T14:36:09;96127.16;;;22.02;59.59
61674;BME280;47573;43.832;5.974;2023-02-18T14:43:03;96128.50;;;22.24;59.25
61674;BME280;47573;43.832;5.974;2023-02-18T14:49:51;96122.59;;;22.27;60.23
61674;BME280;47573;43.832;5.974;2023-02-18T14:56:37;96119.81;;;22.40;60.22
61674;BME280;47573;43.832;5.974;2023-02-18T15:03:19;96115.69;;;22.31;61.27
61674;BME280;47573;43.832;5.974;2023-02-18T15:10:01;96109.75;;;22.41;61.36
61674;BME280;47573;43.832;5.974;2023-02-18T15:16:43;96099.25;;;22.45;61.69
61674;BME280;47573;43.832;5.974;2023-02-18T15:23:23;96098.13;;;22.59;61.43
61674;BME280;47573;43.832;5.974;2023-02-18T15:30:17;96089.00;;;22.47;62.47
61674;BME280;47573;43.832;5.974;2023-02-18T15:37:00;96091.66;;;22.60;62.59
61674;BME280;47573;43.832;5.974;2023-02-18T15:43:51;96080.75;;;22.60;62.68
61674;BME280;47573;43.832;5.974;2023-02-18T15:50:35;96087.66;;;22.56;63.46
61674;BME280;47573;43.832;5.974;2023-02-18T15:57:16;96089.88;;;22.72;63.30
61674;BME280;47573;43.832;5.974;2023-02-18T16:03:58;96081.31;;;22.68;63.88
61674;BME280;47573;43.832;5.974;2023-02-18T16:10:46;96076.47;;;22.70;64.24
61674;BME280;47573;43.832;5.974;2023-02-18T16:17:28;96073.97;;;22.69;64.60
61674;BME280;47573;43.832;5.974;2023-02-18T16:24:22;96073.16;;;22.68;65.07
61674;BME280;47573;43.832;5.974;2023-02-18T16:31:05;96071.47;;;22.67;65.26
61674;BME280;47573;43.832;5.974;2023-02-18T16:37:45;96075.03;;;22.68;65.35
61674;BME280;47573;43.832;5.974;2023-02-18T16:44:26;96075.63;;;22.70;65.54
61674;BME280;47573;43.832;5.974;2023-02-18T16:51:10;96071.88;;;22.71;65.93
61674;BME280;47573;43.832;5.974;2023-02-18T16:57:52;96069.75;;;22.73;66.04
61674;BME280;47573;43.832;5.974;2023-02-18T17:04:32;96071.78;;;22.77;65.41
61674;BME280;47573;43.832;5.974;2023-02-18T17:11:18;96073.09;;;22.75;66.33
61674;BME280;47573;43.832;5.974;2023-02-18T17:18:00;96073.41;;;22.85;66.03
61674;BME280;47573;43.832;5.974;2023-02-18T17:24:40;96079.75;;;22.79;66.44
61674;BME280;47573;43.832;5.974;2023-02-18T17:31:24;96077.84;;;22.79;66.77
61674;BME280;47573;43.832;5.974;2023-02-18T17:38:09;96082.25;;;22.80;67.30
61674;BME280;47573;43.832;5.974;2023-02-18T17:44:49;96081.78;;;22.83;67.08
61674;BME280;47573;43.832;5.974;2023-02-18T17:51:31;96087.63;;;22.87;67.05
61674;BME280;47573;43.832;5.974;2023-02-18T17:58:13;96092.63;;;22.90;66.76
61674;BME280;47573;43.832;5.974;2023-02-18T18:04:54;96099.84;;;22.78;67.76
61674;BME280;47573;43.832;5.974;2023-02-18T18:11:37;96102.16;;;22.81;67.72
61674;BME280;47573;43.832;5.974;2023-02-18T18:18:18;96112.44;;;22.79;68.04
61674;BME280;47573;43.832;5.974;2023-02-18T18:24:59;96117.59;;;22.87;68.20
61674;BME280;47573;43.832;5.974;2023-02-18T18:31:40;96114.28;;;23.03;68.25
61674;BME280;47573;43.832;5.974;2023-02-18T18:38:22;96118.56;;;22.92;67.77
61674;BME280;47573;43.832;5.974;2023-02-18T18:45:04;96129.09;;;22.89;68.39
61674;BME280;47573;43.832;5.974;2023-02-18T18:51:46;96127.41;;;22.88;68.94
61674;BME280;47573;43.832;5.974;2023-02-18T18:58:27;96124.34;;;23.02;69.05
61674;BME280;47573;43.832;5.974;2023-02-18T19:05:15;96124.75;;;23.06;68.31
61674;BME280;47573;43.832;5.974;2023-02-18T19:11:59;96129.03;;;22.95;69.11
61674;BME280;47573;43.832;5.974;2023-02-18T19:18:40;96121.75;;;23.14;69.07
61674;BME280;47573;43.832;5.974;2023-02-18T19:25:21;96127.19;;;23.14;69.12
61674;BME280;47573;43.832;5.974;2023-02-18T19:32:03;96128.72;;;23.28;69.45
61674;BME280;47573;43.832;5.974;2023-02-18T19:38:44;96128.63;;;23.41;69.44
61674;BME280;47573;43.832;5.974;2023-02-18T19:45:25;96135.09;;;23.58;69.82
61674;BME280;47573;43.832;5.974;2023-02-18T19:52:07;96141.94;;;23.49;70.90
61674;BME280;47573;43.832;5.974;2023-02-18T19:58:48;96147.81;;;23.64;70.78
61674;BME280;47573;43.832;5.974;2023-02-18T20:05:28;96148.00;;;23.69;71.54
61674;BME280;47573;43.832;5.974;2023-02-18T20:12:10;96153.44;;;23.69;71.58
61674;BME280;47573;43.832;5.974;2023-02-18T20:18:51;96151.31;;;23.71;71.06
61674;BME280;47573;43.832;5.974;2023-02-18T20:25:31;96157.25;;;23.68;71.54
61674;BME280;47573;43.832;5.974;2023-02-18T20:32:13;96162.47;;;23.70;71.41
61674;BME280;47573;43.832;5.974;2023-02-18T20:38:54;96153.44;;;23.69;71.21
61674;BME280;47573;43.832;5.974;2023-02-18T20:45:34;96151.78;;;23.68;71.20
61674;BME280;47573;43.832;5.974;2023-02-18T20:52:16;96152.00;;;23.67;71.55
61674;BME280;47573;43.832;5.974;2023-02-18T20:58:57;96170.66;;;23.70;71.20
61674;BME280;47573;43.832;5.974;2023-02-18T21:05:37;96153.50;;;23.63;71.53
61674;BME280;47573;43.832;5.974;2023-02-18T21:12:19;96157.25;;;23.68;71.63
61674;BME280;47573;43.832;5.974;2023-02-18T21:18:59;96142.38;;;23.64;71.34
61674;BME280;47573;43.832;5.974;2023-02-18T21:25:40;96144.22;;;23.70;71.26
61674;BME280;47573;43.832;5.974;2023-02-18T21:32:22;96152.47;;;23.64;71.30
61674;BME280;47573;43.832;5.974;2023-02-18T21:39:04;96158.84;;;23.58;71.83
61674;BME280;47573;43.832;5.974;2023-02-18T21:45:45;96155.88;;;23.59;71.75
61674;BME280;47573;43.832;5.974;2023-02-18T21:52:27;96151.94;;;23.55;71.87
61674;BME280;47573;43.832;5.974;2023-02-18T21:59:08;96152.97;;;23.54;71.80
61674;BME280;47573;43.832;5.974;2023-02-18T22:05:48;96157.81;;;23.52;71.86
61674;BME280;47573;43.832;5.974;2023-02-18T22:12:31;96148.44;;;23.48;71.83
61674;BME280;47573;43.832;5.974;2023-02-18T22:19:12;96151.63;;;23.45;71.66
61674;BME280;47573;43.832;5.974;2023-02-18T22:25:53;96145.09;;;23.46;71.79
61674;BME280;47573;43.832;5.974;2023-02-18T22:32:35;96151.63;;;23.45;71.61
61674;BME280;47573;43.832;5.974;2023-02-18T22:39:15;96156.63;;;23.48;71.93
61674;BME280;47573;43.832;5.974;2023-02-18T22:45:56;96139.81;;;23.51;71.64
61674;BME280;47573;43.832;5.974;2023-02-18T22:52:41;96130.56;;;23.52;71.73
61674;BME280;47573;43.832;5.974;2023-02-18T22:59:22;96126.38;;;23.50;71.51
61674;BME280;47573;43.832;5.974;2023-02-18T23:06:04;96123.00;;;23.54;71.21
61674;BME280;47573;43.832;5.974;2023-02-18T23:12:47;96120.13;;;23.49;71.50
61674;BME280;47573;43.832;5.974;2023-02-18T23:19:30;96129.34;;;23.48;71.47
61674;BME280;47573;43.832;5.974;2023-02-18T23:26:11;96122.78;;;23.56;71.09
61674;BME280;47573;43.832;5.974;2023-02-18T23:32:53;96120.44;;;23.16;71.54
61674;BME280;47573;43.832;5.974;2023-02-18T23:39:34;96127.13;;;22.96;71.72
61674;BME280;47573;43.832;5.974;2023-02-18T23:46:16;96123.66;;;22.89;71.42
61674;BME280;47573;43.832;5.974;2023-02-18T23:52:58;96120.81;;;22.77;71.62
61674;BME280;47573;43.832;5.974;2023-02-18T23:59:38;96114.38;;;22.72;71.61
